sensor_id;sensor_type;location;lat;lon;timestamp;P1;durP1;ratioP1;P2;durP2;ratioP2
13331;SDS011;6735;51.456;12.626;2023-02-18T00:01:24;3.40;;;1.67;;
13331;SDS011;6735;51.456;12.626;2023-02-18T00:03:50;4.20;;;1.87;;
13331;SDS011;6735;51.456;12.626;2023-02-18T00:06:17;3.60;;;1.47;;
13331;SDS011;6735;51.456;12.626;2023-02-18T00:08:49;3.33;;;1.70;;
13331;SDS011;6735;51.456;12.626;2023-02-18T00:11:16;5.00;;;1.80;;
13331;SDS011;6735;51.456;12.626;2023-02-18T00:13:42;6.80;;;1.70;;
13331;SDS011;6735;51.456;12.626;2023-02-18T00:16:08;3.87;;;1.73;;
13331;SDS011;6735;51.456;12.626;2023-02-18T00:18:36;2.67;;;1.50;;
13331;SDS011;6735;51.456;12.626;2023-02-18T00:21:03;2.83;;;1.70;;
13331;SDS011;6735;51.456;12.626;2023-02-18T00:23:29;5.17;;;1.90;;
13331;SDS011;6735;51.456;12.626;2023-02-18T00:25:59;3.00;;;1.50;;
13331;SDS011;6735;51.456;12.626;2023-02-18T00:28:29;3.23;;;1.70;;
13331;SDS011;6735;51.456;12.626;2023-02-18T00:30:55;2.77;;;1.40;;
13331;SDS011;6735;51.456;12.626;2023-02-18T00:33:21;3.87;;;1.60;;
13331;SDS011;6735;51.456;12.626;2023-02-18T00:35:46;2.73;;;1.70;;
13331;SDS011;6735;51.456;12.626;2023-02-18T00:38:12;3.10;;;1.87;;
13331;SDS011;6735;51.456;12.626;2023-02-18T00:40:38;4.47;;;1.73;;
13331;SDS011;6735;51.456;12.626;2023-02-18T00:43:04;2.53;;;1.60;;
13331;SDS011;6735;51.456;12.626;2023-02-18T00:45:30;2.60;;;1.53;;
13331;SDS011;6735;51.456;12.626;2023-02-18T00:47:55;3.63;;;1.53;;
13331;SDS011;6735;51.456;12.626;2023-02-18T00:50:21;4.93;;;1.73;;
13331;SDS011;6735;51.456;12.626;2023-02-18T00:52:46;4.30;;;1.53;;
13331;SDS011;6735;51.456;12.626;2023-02-18T00:55:12;4.07;;;1.57;;
13331;SDS011;6735;51.456;12.626;2023-02-18T00:57:37;2.17;;;1.30;;
13331;SDS011;6735;51.456;12.626;2023-02-18T01:00:04;5.37;;;1.97;;
13331;SDS011;6735;51.456;12.626;2023-02-18T01:02:30;4.13;;;1.70;;
13331;SDS011;6735;51.456;12.626;2023-02-18T01:04:56;4.40;;;1.80;;
13331;SDS011;6735;51.456;12.626;2023-02-18T01:07:21;5.57;;;2.03;;
13331;SDS011;6735;51.456;12.626;2023-02-18T01:09:47;5.17;;;1.77;;
13331;SDS011;6735;51.456;12.626;2023-02-18T01:12:12;5.40;;;1.90;;
13331;SDS011;6735;51.456;12.626;2023-02-18T01:14:38;4.47;;;1.53;;
13331;SDS011;6735;51.456;12.626;2023-02-18T01:17:04;5.30;;;1.73;;
13331;SDS011;6735;51.456;12.626;2023-02-18T01:19:29;8.33;;;2.13;;
13331;SDS011;6735;51.456;12.626;2023-02-18T01:21:55;5.47;;;1.87;;
13331;SDS011;6735;51.456;12.626;2023-02-18T01:24:20;4.83;;;1.70;;
13331;SDS011;6735;51.456;12.626;2023-02-18T01:26:46;3.30;;;1.60;;
13331;SDS011;6735;51.456;12.626;2023-02-18T01:29:11;4.67;;;1.80;;
13331;SDS011;6735;51.456;12.626;2023-02-18T01:31:37;4.07;;;1.87;;
13331;SDS011;6735;51.456;12.626;2023-02-18T01:34:02;6.87;;;2.07;;
13331;SDS011;6735;51.456;12.626;2023-02-18T01:36:28;5.47;;;2.30;;
13331;SDS011;6735;51.456;12.626;2023-02-18T01:38:53;6.20;;;1.90;;
13331;SDS011;6735;51.456;12.626;2023-02-18T01:41:19;4.37;;;1.60;;
13331;SDS011;6735;51.456;12.626;2023-02-18T01:43:44;6.77;;;1.80;;
13331;SDS011;6735;51.456;12.626;2023-02-18T01:46:15;4.20;;;2.00;;
13331;SDS011;6735;51.456;12.626;2023-02-18T01:48:49;4.47;;;2.00;;
13331;SDS011;6735;51.456;12.626;2023-02-18T01:51:21;5.67;;;1.97;;
13331;SDS011;6735;51.456;12.626;2023-02-18T01:54:01;6.50;;;2.07;;
13331;SDS011;6735;51.456;12.626;2023-02-18T01:56:51;5.00;;;2.10;;
13331;SDS011;6735;51.456;12.626;2023-02-18T01:59:25;8.53;;;2.03;;
13331;SDS011;6735;51.456;12.626;2023-02-18T02:01:56;5.10;;;1.70;;
13331;SDS011;6735;51.456;12.626;2023-02-18T02:04:22;8.93;;;2.20;;
13331;SDS011;6735;51.456;12.626;2023-02-18T02:06:48;4.50;;;1.80;;
13331;SDS011;6735;51.456;12.626;2023-02-18T02:09:15;5.97;;;1.80;;
13331;SDS011;6735;51.456;12.626;2023-02-18T02:17:16;4.80;;;1.80;;
13331;SDS011;6735;51.456;12.626;2023-02-18T02:20:04;4.80;;;1.90;;
13331;SDS011;6735;51.456;12.626;2023-02-18T02:25:52;4.53;;;2.10;;
13331;SDS011;6735;51.456;12.626;2023-02-18T02:28:35;3.27;;;1.77;;
13331;SDS011;6735;51.456;12.626;2023-02-18T02:31:30;4.60;;;1.90;;
13331;SDS011;6735;51.456;12.626;2023-02-18T02:37:13;9.73;;;2.40;;
13331;SDS011;6735;51.456;12.626;2023-02-18T02:40:14;4.50;;;2.27;;
13331;SDS011;6735;51.456;12.626;2023-02-18T02:48:09;6.00;;;2.70;;
13331;SDS011;6735;51.456;12.626;2023-02-18T02:50:45;8.13;;;2.63;;
13331;SDS011;6735;51.456;12.626;2023-02-18T02:53:23;8.20;;;2.60;;
13331;SDS011;6735;51.456;12.626;2023-02-18T02:55:51;7.47;;;2.83;;
13331;SDS011;6735;51.456;12.626;2023-02-18T02:58:19;8.27;;;2.73;;
13331;SDS011;6735;51.456;12.626;2023-02-18T03:00:55;7.50;;;2.63;;
13331;SDS011;6735;51.456;12.626;2023-02-18T03:06:26;7.87;;;2.70;;
13331;SDS011;6735;51.456;12.626;2023-02-18T03:14:45;7.43;;;2.80;;
13331;SDS011;6735;51.456;12.626;2023-02-18T03:17:22;7.03;;;2.53;;
13331;SDS011;6735;51.456;12.626;2023-02-18T03:19:57;7.00;;;2.90;;
13331;SDS011;6735;51.456;12.626;2023-02-18T03:22:34;4.50;;;2.53;;
13331;SDS011;6735;51.456;12.626;2023-02-18T03:25:04;7.73;;;2.60;;
13331;SDS011;6735;51.456;12.626;2023-02-18T03:27:32;9.37;;;2.47;;
13331;SDS011;6735;51.456;12.626;2023-02-18T03:30:04;6.87;;;2.30;;
13331;SDS011;6735;51.456;12.626;2023-02-18T03:32:36;7.20;;;2.77;;
13331;SDS011;6735;51.456;12.626;2023-02-18T03:35:05;7.03;;;2.83;;
13331;SDS011;6735;51.456;12.626;2023-02-18T03:37:36;12.20;;;3.50;;
13331;SDS011;6735;51.456;12.626;2023-02-18T03:40:06;8.07;;;2.90;;
13331;SDS011;6735;51.456;12.626;2023-02-18T03:42:34;8.10;;;3.37;;
13331;SDS011;6735;51.456;12.626;2023-02-18T03:44:59;8.70;;;3.13;;
13331;SDS011;6735;51.456;12.626;2023-02-18T03:47:25;7.13;;;3.07;;
13331;SDS011;6735;51.456;12.626;2023-02-18T03:49:51;9.63;;;2.90;;
13331;SDS011;6735;51.456;12.626;2023-02-18T03:52:16;10.23;;;2.90;;
13331;SDS011;6735;51.456;12.626;2023-02-18T03:54:42;8.63;;;3.43;;
13331;SDS011;6735;51.456;12.626;2023-02-18T03:57:07;9.93;;;3.17;;
13331;SDS011;6735;51.456;12.626;2023-02-18T03:59:33;7.67;;;2.70;;
13331;SDS011;6735;51.456;12.626;2023-02-18T04:01:58;8.20;;;3.17;;
13331;SDS011;6735;51.456;12.626;2023-02-18T04:04:24;6.50;;;2.80;;
13331;SDS011;6735;51.456;12.626;2023-02-18T04:06:50;5.37;;;2.77;;
13331;SDS011;6735;51.456;12.626;2023-02-18T04:09:15;5.50;;;2.77;;
13331;SDS011;6735;51.456;12.626;2023-02-18T04:11:41;8.87;;;3.00;;
13331;SDS011;6735;51.456;12.626;2023-02-18T04:14:07;8.80;;;3.27;;
13331;SDS011;6735;51.456;12.626;2023-02-18T04:16:32;8.70;;;3.00;;
13331;SDS011;6735;51.456;12.626;2023-02-18T04:18:58;8.70;;;3.20;;
13331;SDS011;6735;51.456;12.626;2023-02-18T04:21:24;6.97;;;3.20;;
13331;SDS011;6735;51.456;12.626;2023-02-18T04:23:50;8.27;;;3.27;;
13331;SDS011;6735;51.456;12.626;2023-02-18T04:26:15;6.53;;;3.40;;
13331;SDS011;6735;51.456;12.626;2023-02-18T04:28:41;9.77;;;3.70;;
13331;SDS011;6735;51.456;12.626;2023-02-18T04:31:06;10.10;;;3.60;;
13331;SDS011;6735;51.456;12.626;2023-02-18T04:33:32;10.47;;;3.40;;
13331;SDS011;6735;51.456;12.626;2023-02-18T04:35:57;7.87;;;3.90;;
13331;SDS011;6735;51.456;12.626;2023-02-18T04:38:22;10.27;;;3.50;;
13331;SDS011;6735;51.456;12.626;2023-02-18T04:40:48;6.87;;;3.47;;
13331;SDS011;6735;51.456;12.626;2023-02-18T04:43:13;7.03;;;3.20;;
13331;SDS011;6735;51.456;12.626;2023-02-18T04:45:39;8.97;;;3.67;;
13331;SDS011;6735;51.456;12.626;2023-02-18T04:48:05;10.43;;;3.93;;
13331;SDS011;6735;51.456;12.626;2023-02-18T04:50:30;10.10;;;4.07;;
13331;SDS011;6735;51.456;12.626;2023-02-18T04:52:56;8.10;;;3.33;;
13331;SDS011;6735;51.456;12.626;2023-02-18T04:55:21;7.20;;;3.53;;
13331;SDS011;6735;51.456;12.626;2023-02-18T04:57:47;7.80;;;3.60;;
13331;SDS011;6735;51.456;12.626;2023-02-18T05:00:13;7.97;;;3.33;;
13331;SDS011;6735;51.456;12.626;2023-02-18T05:02:40;10.10;;;4.20;;
13331;SDS011;6735;51.456;12.626;2023-02-18T05:05:06;12.50;;;4.50;;
13331;SDS011;6735;51.456;12.626;2023-02-18T05:07:31;13.40;;;4.10;;
13331;SDS011;6735;51.456;12.626;2023-02-18T05:09:58;8.20;;;3.77;;
13331;SDS011;6735;51.456;12.626;2023-02-18T05:12:23;9.07;;;3.60;;
13331;SDS011;6735;51.456;12.626;2023-02-18T05:14:49;10.17;;;3.67;;
13331;SDS011;6735;51.456;12.626;2023-02-18T05:17:14;7.53;;;3.90;;
13331;SDS011;6735;51.456;12.626;2023-02-18T05:19:40;10.00;;;3.90;;
13331;SDS011;6735;51.456;12.626;2023-02-18T05:22:05;10.80;;;4.40;;
13331;SDS011;6735;51.456;12.626;2023-02-18T05:24:30;9.57;;;3.73;;
13331;SDS011;6735;51.456;12.626;2023-02-18T05:26:56;8.87;;;3.70;;
13331;SDS011;6735;51.456;12.626;2023-02-18T05:29:21;8.60;;;4.30;;
13331;SDS011;6735;51.456;12.626;2023-02-18T05:31:47;7.20;;;3.90;;
13331;SDS011;6735;51.456;12.626;2023-02-18T05:34:12;8.20;;;4.10;;
13331;SDS011;6735;51.456;12.626;2023-02-18T05:36:38;8.87;;;3.97;;
13331;SDS011;6735;51.456;12.626;2023-02-18T05:39:03;11.30;;;4.73;;
13331;SDS011;6735;51.456;12.626;2023-02-18T05:41:29;12.10;;;5.10;;
13331;SDS011;6735;51.456;12.626;2023-02-18T05:43:54;8.87;;;5.10;;
13331;SDS011;6735;51.456;12.626;2023-02-18T05:46:38;16.03;;;5.87;;
13331;SDS011;6735;51.456;12.626;2023-02-18T05:49:04;7.87;;;5.37;;
13331;SDS011;6735;51.456;12.626;2023-02-18T05:51:29;10.60;;;6.03;;
13331;SDS011;6735;51.456;12.626;2023-02-18T05:53:55;11.77;;;6.33;;
13331;SDS011;6735;51.456;12.626;2023-02-18T05:56:20;14.43;;;6.50;;
13331;SDS011;6735;51.456;12.626;2023-02-18T05:58:46;12.73;;;6.70;;
13331;SDS011;6735;51.456;12.626;2023-02-18T06:01:11;12.53;;;6.50;;
13331;SDS011;6735;51.456;12.626;2023-02-18T06:03:37;14.23;;;7.43;;
13331;SDS011;6735;51.456;12.626;2023-02-18T06:06:02;15.87;;;8.23;;
13331;SDS011;6735;51.456;12.626;2023-02-18T06:08:28;13.00;;;8.20;;
13331;SDS011;6735;51.456;12.626;2023-02-18T06:10:53;13.40;;;8.30;;
13331;SDS011;6735;51.456;12.626;2023-02-18T06:13:19;15.40;;;8.20;;
13331;SDS011;6735;51.456;12.626;2023-02-18T06:15:44;13.07;;;8.13;;
13331;SDS011;6735;51.456;12.626;2023-02-18T06:18:10;16.50;;;9.10;;
13331;SDS011;6735;51.456;12.626;2023-02-18T06:20:35;15.67;;;8.80;;
13331;SDS011;6735;51.456;12.626;2023-02-18T06:23:02;16.67;;;10.00;;
13331;SDS011;6735;51.456;12.626;2023-02-18T06:25:28;13.63;;;9.60;;
13331;SDS011;6735;51.456;12.626;2023-02-18T06:27:53;18.57;;;11.57;;
13331;SDS011;6735;51.456;12.626;2023-02-18T06:30:18;22.83;;;12.37;;
13331;SDS011;6735;51.456;12.626;2023-02-18T06:32:44;18.37;;;11.13;;
13331;SDS011;6735;51.456;12.626;2023-02-18T06:35:09;20.87;;;12.33;;
13331;SDS011;6735;51.456;12.626;2023-02-18T06:37:35;18.80;;;11.20;;
13331;SDS011;6735;51.456;12.626;2023-02-18T06:40:00;25.67;;;12.07;;
13331;SDS011;6735;51.456;12.626;2023-02-18T06:42:26;23.33;;;13.17;;
13331;SDS011;6735;51.456;12.626;2023-02-18T06:44:51;20.47;;;13.30;;
13331;SDS011;6735;51.456;12.626;2023-02-18T06:47:17;18.13;;;12.73;;
13331;SDS011;6735;51.456;12.626;2023-02-18T06:49:42;17.87;;;12.90;;
13331;SDS011;6735;51.456;12.626;2023-02-18T06:52:07;18.70;;;12.33;;
13331;SDS011;6735;51.456;12.626;2023-02-18T06:54:33;19.43;;;13.00;;
13331;SDS011;6735;51.456;12.626;2023-02-18T06:56:59;22.73;;;13.60;;
13331;SDS011;6735;51.456;12.626;2023-02-18T06:59:24;22.33;;;15.30;;
13331;SDS011;6735;51.456;12.626;2023-02-18T07:01:50;21.10;;;14.23;;
13331;SDS011;6735;51.456;12.626;2023-02-18T07:04:15;19.27;;;13.60;;
13331;SDS011;6735;51.456;12.626;2023-02-18T07:06:41;21.73;;;13.60;;
13331;SDS011;6735;51.456;12.626;2023-02-18T07:09:06;20.93;;;14.10;;
13331;SDS011;6735;51.456;12.626;2023-02-18T07:11:32;24.63;;;15.67;;
13331;SDS011;6735;51.456;12.626;2023-02-18T07:13:57;24.57;;;16.10;;
13331;SDS011;6735;51.456;12.626;2023-02-18T07:16:23;23.90;;;16.10;;
13331;SDS011;6735;51.456;12.626;2023-02-18T07:18:48;24.07;;;16.50;;
13331;SDS011;6735;51.456;12.626;2023-02-18T07:21:14;23.37;;;15.70;;
13331;SDS011;6735;51.456;12.626;2023-02-18T07:23:40;24.23;;;16.57;;
13331;SDS011;6735;51.456;12.626;2023-02-18T07:26:06;23.20;;;15.70;;
13331;SDS011;6735;51.456;12.626;2023-02-18T07:28:34;24.67;;;16.03;;
13331;SDS011;6735;51.456;12.626;2023-02-18T07:30:59;28.30;;;16.50;;
13331;SDS011;6735;51.456;12.626;2023-02-18T07:33:25;23.33;;;16.57;;
13331;SDS011;6735;51.456;12.626;2023-02-18T07:35:54;22.43;;;16.17;;
13331;SDS011;6735;51.456;12.626;2023-02-18T07:38:21;26.37;;;17.40;;
13331;SDS011;6735;51.456;12.626;2023-02-18T07:40:48;24.63;;;17.03;;
13331;SDS011;6735;51.456;12.626;2023-02-18T07:43:14;25.80;;;17.63;;
13331;SDS011;6735;51.456;12.626;2023-02-18T07:45:39;27.87;;;17.50;;
13331;SDS011;6735;51.456;12.626;2023-02-18T07:48:05;27.67;;;17.33;;
13331;SDS011;6735;51.456;12.626;2023-02-18T07:50:30;25.40;;;16.93;;
13331;SDS011;6735;51.456;12.626;2023-02-18T07:52:59;24.50;;;17.07;;
13331;SDS011;6735;51.456;12.626;2023-02-18T07:55:25;26.23;;;17.50;;
13331;SDS011;6735;51.456;12.626;2023-02-18T07:58:13;29.13;;;18.40;;
13331;SDS011;6735;51.456;12.626;2023-02-18T08:00:39;28.97;;;18.10;;
13331;SDS011;6735;51.456;12.626;2023-02-18T08:03:04;25.57;;;17.43;;
13331;SDS011;6735;51.456;12.626;2023-02-18T08:05:30;22.73;;;17.33;;
13331;SDS011;6735;51.456;12.626;2023-02-18T08:07:55;24.63;;;18.10;;
13331;SDS011;6735;51.456;12.626;2023-02-18T08:10:21;26.27;;;17.53;;
13331;SDS011;6735;51.456;12.626;2023-02-18T08:12:46;25.93;;;17.90;;
13331;SDS011;6735;51.456;12.626;2023-02-18T08:15:12;27.77;;;19.57;;
13331;SDS011;6735;51.456;12.626;2023-02-18T08:17:37;29.80;;;20.53;;
13331;SDS011;6735;51.456;12.626;2023-02-18T08:20:03;23.37;;;17.90;;
13331;SDS011;6735;51.456;12.626;2023-02-18T08:22:29;27.50;;;19.73;;
13331;SDS011;6735;51.456;12.626;2023-02-18T08:24:55;32.10;;;20.30;;
13331;SDS011;6735;51.456;12.626;2023-02-18T08:27:21;28.37;;;20.43;;
13331;SDS011;6735;51.456;12.626;2023-02-18T08:29:47;31.57;;;19.43;;
13331;SDS011;6735;51.456;12.626;2023-02-18T08:32:12;27.47;;;19.10;;
13331;SDS011;6735;51.456;12.626;2023-02-18T08:34:38;26.77;;;19.60;;
13331;SDS011;6735;51.456;12.626;2023-02-18T08:37:03;27.43;;;18.47;;
13331;SDS011;6735;51.456;12.626;2023-02-18T08:39:33;27.90;;;18.20;;
13331;SDS011;6735;51.456;12.626;2023-02-18T08:41:59;26.90;;;18.50;;
13331;SDS011;6735;51.456;12.626;2023-02-18T08:44:25;25.27;;;18.37;;
13331;SDS011;6735;51.456;12.626;2023-02-18T08:46:51;23.57;;;15.63;;
13331;SDS011;6735;51.456;12.626;2023-02-18T08:49:17;22.70;;;15.87;;
13331;SDS011;6735;51.456;12.626;2023-02-18T08:51:44;25.37;;;16.00;;
13331;SDS011;6735;51.456;12.626;2023-02-18T08:54:11;18.73;;;14.43;;
13331;SDS011;6735;51.456;12.626;2023-02-18T08:56:36;19.40;;;13.83;;
13331;SDS011;6735;51.456;12.626;2023-02-18T08:59:02;19.13;;;14.13;;
13331;SDS011;6735;51.456;12.626;2023-02-18T09:01:27;19.30;;;12.70;;
13331;SDS011;6735;51.456;12.626;2023-02-18T09:03:54;16.63;;;13.03;;
13331;SDS011;6735;51.456;12.626;2023-02-18T09:06:20;14.83;;;12.57;;
13331;SDS011;6735;51.456;12.626;2023-02-18T09:08:45;14.90;;;12.33;;
13331;SDS011;6735;51.456;12.626;2023-02-18T09:11:11;11.13;;;9.83;;
13331;SDS011;6735;51.456;12.626;2023-02-18T09:13:37;8.53;;;7.73;;
13331;SDS011;6735;51.456;12.626;2023-02-18T09:16:03;7.07;;;6.43;;
13331;SDS011;6735;51.456;12.626;2023-02-18T09:18:34;7.10;;;6.43;;
13331;SDS011;6735;51.456;12.626;2023-02-18T09:21:00;5.93;;;4.70;;
13331;SDS011;6735;51.456;12.626;2023-02-18T09:23:26;4.27;;;3.87;;
13331;SDS011;6735;51.456;12.626;2023-02-18T09:25:53;4.00;;;3.60;;
13331;SDS011;6735;51.456;12.626;2023-02-18T09:28:18;3.40;;;3.17;;
13331;SDS011;6735;51.456;12.626;2023-02-18T09:30:44;3.50;;;3.23;;
13331;SDS011;6735;51.456;12.626;2023-02-18T09:33:10;3.67;;;2.87;;
13331;SDS011;6735;51.456;12.626;2023-02-18T09:35:40;3.97;;;2.90;;
13331;SDS011;6735;51.456;12.626;2023-02-18T09:38:07;4.73;;;4.20;;
13331;SDS011;6735;51.456;12.626;2023-02-18T09:40:37;3.27;;;2.80;;
13331;SDS011;6735;51.456;12.626;2023-02-18T09:43:08;3.63;;;2.73;;
13331;SDS011;6735;51.456;12.626;2023-02-18T09:45:42;2.53;;;2.33;;
13331;SDS011;6735;51.456;12.626;2023-02-18T09:48:08;2.50;;;2.30;;
13331;SDS011;6735;51.456;12.626;2023-02-18T09:50:33;4.17;;;3.17;;
13331;SDS011;6735;51.456;12.626;2023-02-18T09:53:00;3.10;;;2.53;;
13331;SDS011;6735;51.456;12.626;2023-02-18T09:55:28;2.00;;;1.90;;
13331;SDS011;6735;51.456;12.626;2023-02-18T09:58:03;2.63;;;2.43;;
13331;SDS011;6735;51.456;12.626;2023-02-18T10:00:36;2.70;;;2.50;;
13331;SDS011;6735;51.456;12.626;2023-02-18T10:03:05;2.10;;;1.90;;
13331;SDS011;6735;51.456;12.626;2023-02-18T10:05:36;1.80;;;1.67;;
13331;SDS011;6735;51.456;12.626;2023-02-18T10:08:10;1.90;;;1.80;;
13331;SDS011;6735;51.456;12.626;2023-02-18T10:10:45;1.90;;;1.70;;
13331;SDS011;6735;51.456;12.626;2023-02-18T10:13:18;1.87;;;1.77;;
13331;SDS011;6735;51.456;12.626;2023-02-18T10:15:45;2.83;;;1.70;;
13331;SDS011;6735;51.456;12.626;2023-02-18T10:18:28;1.73;;;1.60;;
13331;SDS011;6735;51.456;12.626;2023-02-18T10:20:57;1.27;;;1.20;;
13331;SDS011;6735;51.456;12.626;2023-02-18T10:23:33;1.37;;;1.03;;
13331;SDS011;6735;51.456;12.626;2023-02-18T10:26:04;1.07;;;1.07;;
13331;SDS011;6735;51.456;12.626;2023-02-18T10:28:32;1.43;;;1.33;;
13331;SDS011;6735;51.456;12.626;2023-02-18T10:31:01;0.90;;;0.90;;
13331;SDS011;6735;51.456;12.626;2023-02-18T10:33:33;1.00;;;0.90;;
13331;SDS011;6735;51.456;12.626;2023-02-18T10:36:24;1.03;;;1.03;;
13331;SDS011;6735;51.456;12.626;2023-02-18T10:39:01;1.10;;;1.00;;
13331;SDS011;6735;51.456;12.626;2023-02-18T10:41:34;1.03;;;1.00;;
13331;SDS011;6735;51.456;12.626;2023-02-18T10:46:59;0.90;;;0.90;;
13331;SDS011;6735;51.456;12.626;2023-02-18T10:49:52;2.27;;;1.40;;
13331;SDS011;6735;51.456;12.626;2023-02-18T10:52:46;1.70;;;1.30;;
13331;SDS011;6735;51.456;12.626;2023-02-18T10:55:13;2.60;;;2.00;;
13331;SDS011;6735;51.456;12.626;2023-02-18T10:57:52;3.10;;;2.13;;
13331;SDS011;6735;51.456;12.626;2023-02-18T11:02:59;2.30;;;2.10;;
13331;SDS011;6735;51.456;12.626;2023-02-18T11:05:50;2.00;;;1.90;;
13331;SDS011;6735;51.456;12.626;2023-02-18T11:08:25;1.00;;;1.00;;
13331;SDS011;6735;51.456;12.626;2023-02-18T11:10:52;1.50;;;1.40;;
13331;SDS011;6735;51.456;12.626;2023-02-18T11:13:26;1.50;;;1.10;;
13331;SDS011;6735;51.456;12.626;2023-02-18T11:15:56;0.80;;;0.80;;
13331;SDS011;6735;51.456;12.626;2023-02-18T11:20:56;0.70;;;0.70;;
13331;SDS011;6735;51.456;12.626;2023-02-18T11:23:24;1.40;;;1.00;;
13331;SDS011;6735;51.456;12.626;2023-02-18T11:26:00;0.67;;;0.67;;
13331;SDS011;6735;51.456;12.626;2023-02-18T11:28:30;0.70;;;0.70;;
13331;SDS011;6735;51.456;12.626;2023-02-18T11:31:03;1.00;;;1.00;;
13331;SDS011;6735;51.456;12.626;2023-02-18T11:33:31;1.50;;;0.93;;
13331;SDS011;6735;51.456;12.626;2023-02-18T11:36:02;1.40;;;1.30;;
13331;SDS011;6735;51.456;12.626;2023-02-18T11:38:41;1.20;;;1.10;;
13331;SDS011;6735;51.456;12.626;2023-02-18T11:41:19;0.80;;;0.80;;
13331;SDS011;6735;51.456;12.626;2023-02-18T11:43:52;2.23;;;1.40;;
13331;SDS011;6735;51.456;12.626;2023-02-18T11:46:22;1.33;;;0.97;;
13331;SDS011;6735;51.456;12.626;2023-02-18T11:48:49;0.90;;;0.90;;
13331;SDS011;6735;51.456;12.626;2023-02-18T11:51:17;3.00;;;1.20;;
13331;SDS011;6735;51.456;12.626;2023-02-18T11:56:38;0.93;;;0.93;;
13331;SDS011;6735;51.456;12.626;2023-02-18T11:59:03;1.20;;;1.10;;
13331;SDS011;6735;51.456;12.626;2023-02-18T12:04:03;1.83;;;1.13;;
13331;SDS011;6735;51.456;12.626;2023-02-18T12:06:38;0.80;;;0.80;;
13331;SDS011;6735;51.456;12.626;2023-02-18T12:09:19;0.90;;;0.90;;
13331;SDS011;6735;51.456;12.626;2023-02-18T12:11:50;2.00;;;1.90;;
13331;SDS011;6735;51.456;12.626;2023-02-18T12:14:20;1.13;;;1.13;;
13331;SDS011;6735;51.456;12.626;2023-02-18T12:16:56;1.20;;;1.10;;
13331;SDS011;6735;51.456;12.626;2023-02-18T12:22:19;1.00;;;1.00;;
13331;SDS011;6735;51.456;12.626;2023-02-18T12:30:26;1.57;;;1.33;;
13331;SDS011;6735;51.456;12.626;2023-02-18T12:36:32;1.97;;;1.30;;
13331;SDS011;6735;51.456;12.626;2023-02-18T12:44:54;1.30;;;1.20;;
13331;SDS011;6735;51.456;12.626;2023-02-18T12:48:21;1.70;;;1.60;;
13331;SDS011;6735;51.456;12.626;2023-02-18T12:54:42;2.13;;;1.20;;
13331;SDS011;6735;51.456;12.626;2023-02-18T12:56:52;0.80;;;0.80;;
13331;SDS011;6735;51.456;12.626;2023-02-18T12:59:45;1.17;;;0.93;;
13331;SDS011;6735;51.456;12.626;2023-02-18T13:10:34;1.00;;;1.00;;
13331;SDS011;6735;51.456;12.626;2023-02-18T13:13:23;1.40;;;1.30;;
13331;SDS011;6735;51.456;12.626;2023-02-18T13:15:52;1.43;;;1.33;;
13331;SDS011;6735;51.456;12.626;2023-02-18T13:18:31;1.20;;;1.20;;
13331;SDS011;6735;51.456;12.626;2023-02-18T13:21:04;1.83;;;1.30;;
13331;SDS011;6735;51.456;12.626;2023-02-18T13:23:39;3.17;;;1.17;;
13331;SDS011;6735;51.456;12.626;2023-02-18T13:26:18;0.80;;;0.80;;
13331;SDS011;6735;51.456;12.626;2023-02-18T13:31:19;1.60;;;0.93;;
13331;SDS011;6735;51.456;12.626;2023-02-18T13:36:50;1.77;;;1.37;;
13331;SDS011;6735;51.456;12.626;2023-02-18T13:39:36;1.90;;;1.27;;
13331;SDS011;6735;51.456;12.626;2023-02-18T13:42:57;1.27;;;0.73;;
13331;SDS011;6735;51.456;12.626;2023-02-18T13:52:47;1.03;;;1.03;;
13331;SDS011;6735;51.456;12.626;2023-02-18T13:55:21;1.20;;;1.10;;
13331;SDS011;6735;51.456;12.626;2023-02-18T13:57:52;1.23;;;1.23;;
13331;SDS011;6735;51.456;12.626;2023-02-18T14:00:24;1.27;;;1.17;;
13331;SDS011;6735;51.456;12.626;2023-02-18T14:02:59;1.30;;;1.20;;
13331;SDS011;6735;51.456;12.626;2023-02-18T14:05:43;1.67;;;1.30;;
13331;SDS011;6735;51.456;12.626;2023-02-18T14:08:13;1.93;;;1.83;;
13331;SDS011;6735;51.456;12.626;2023-02-18T14:11:23;1.50;;;1.40;;
13331;SDS011;6735;51.456;12.626;2023-02-18T14:16:24;1.50;;;1.40;;
13331;SDS011;6735;51.456;12.626;2023-02-18T14:18:54;1.00;;;1.00;;
13331;SDS011;6735;51.456;12.626;2023-02-18T14:21:22;2.87;;;1.23;;
13331;SDS011;6735;51.456;12.626;2023-02-18T14:24:02;1.30;;;1.20;;
13331;SDS011;6735;51.456;12.626;2023-02-18T14:26:34;1.47;;;1.37;;
13331;SDS011;6735;51.456;12.626;2023-02-18T14:29:04;1.30;;;1.20;;
13331;SDS011;6735;51.456;12.626;2023-02-18T14:31:39;1.70;;;1.60;;
13331;SDS011;6735;51.456;12.626;2023-02-18T14:34:25;2.17;;;1.67;;
13331;SDS011;6735;51.456;12.626;2023-02-18T14:40:02;3.37;;;2.07;;
13331;SDS011;6735;51.456;12.626;2023-02-18T14:46:11;3.27;;;2.97;;
13331;SDS011;6735;51.456;12.626;2023-02-18T14:48:49;5.23;;;3.40;;
13331;SDS011;6735;51.456;12.626;2023-02-18T14:51:37;2.83;;;1.73;;
13331;SDS011;6735;51.456;12.626;2023-02-18T14:54:05;1.97;;;1.43;;
13331;SDS011;6735;51.456;12.626;2023-02-18T14:56:36;2.53;;;1.50;;
13331;SDS011;6735;51.456;12.626;2023-02-18T14:59:04;2.00;;;1.70;;
13331;SDS011;6735;51.456;12.626;2023-02-18T15:01:32;1.60;;;1.50;;
13331;SDS011;6735;51.456;12.626;2023-02-18T15:03:59;1.60;;;1.50;;
13331;SDS011;6735;51.456;12.626;2023-02-18T15:06:30;1.60;;;1.50;;
13331;SDS011;6735;51.456;12.626;2023-02-18T15:08:57;1.60;;;1.50;;
13331;SDS011;6735;51.456;12.626;2023-02-18T15:11:27;3.27;;;1.97;;
13331;SDS011;6735;51.456;12.626;2023-02-18T15:14:01;2.83;;;2.57;;
13331;SDS011;6735;51.456;12.626;2023-02-18T15:16:33;1.60;;;1.50;;
13331;SDS011;6735;51.456;12.626;2023-02-18T15:19:03;1.83;;;1.73;;
13331;SDS011;6735;51.456;12.626;2023-02-18T15:21:38;1.93;;;1.83;;
13331;SDS011;6735;51.456;12.626;2023-02-18T15:24:20;2.13;;;2.03;;
13331;SDS011;6735;51.456;12.626;2023-02-18T15:26:55;1.90;;;1.80;;
13331;SDS011;6735;51.456;12.626;2023-02-18T15:29:24;2.33;;;1.80;;
13331;SDS011;6735;51.456;12.626;2023-02-18T15:31:52;2.00;;;1.80;;
13331;SDS011;6735;51.456;12.626;2023-02-18T15:36:57;2.93;;;1.93;;
13331;SDS011;6735;51.456;12.626;2023-02-18T15:39:23;5.73;;;2.37;;
13331;SDS011;6735;51.456;12.626;2023-02-18T15:41:53;4.10;;;3.10;;
13331;SDS011;6735;51.456;12.626;2023-02-18T15:44:22;2.67;;;1.77;;
13331;SDS011;6735;51.456;12.626;2023-02-18T15:46:50;1.97;;;1.77;;
13331;SDS011;6735;51.456;12.626;2023-02-18T15:49:18;2.17;;;1.90;;
13331;SDS011;6735;51.456;12.626;2023-02-18T15:51:46;1.77;;;1.67;;
13331;SDS011;6735;51.456;12.626;2023-02-18T15:54:17;2.10;;;1.90;;
13331;SDS011;6735;51.456;12.626;2023-02-18T15:56:48;2.20;;;2.00;;
13331;SDS011;6735;51.456;12.626;2023-02-18T15:59:21;2.00;;;1.90;;
13331;SDS011;6735;51.456;12.626;2023-02-18T16:01:54;1.80;;;1.70;;
13331;SDS011;6735;51.456;12.626;2023-02-18T16:04:22;2.13;;;1.93;;
13331;SDS011;6735;51.456;12.626;2023-02-18T16:06:52;2.20;;;2.10;;
13331;SDS011;6735;51.456;12.626;2023-02-18T16:11:49;2.37;;;2.10;;
13331;SDS011;6735;51.456;12.626;2023-02-18T16:14:36;2.47;;;2.33;;
13331;SDS011;6735;51.456;12.626;2023-02-18T16:17:08;2.20;;;2.00;;
13331;SDS011;6735;51.456;12.626;2023-02-18T16:20:14;1.83;;;1.73;;
13331;SDS011;6735;51.456;12.626;2023-02-18T16:22:48;1.90;;;1.80;;
13331;SDS011;6735;51.456;12.626;2023-02-18T16:25:17;2.10;;;2.00;;
13331;SDS011;6735;51.456;12.626;2023-02-18T16:28:01;2.17;;;1.97;;
13331;SDS011;6735;51.456;12.626;2023-02-18T16:30:46;2.20;;;2.00;;
13331;SDS011;6735;51.456;12.626;2023-02-18T16:33:12;2.30;;;2.10;;